Kyokuho Maru No.15 — JI3715 — position and weather

sailwx.info

Track history (hours):
 
Tides and Currents Weather Stations Pressure Air Temp Water Temp Dewpoint Dewpoint Depression Visibility Wind Speed Wind Dir Waves Ship Positions

Kyokuho Maru No.15

Last reported at 2016-Jun-25 02:33 UTC. Time now 2016-Jun-25 03:31 UTC.
Position N 35°22' E 139°40'.

Length 63 m; draft 3.2 m.

Type: Tanker. MMSI: 431301714.

Date/timePositionNaut miles runAvg speedWind from/ knotsBaromVisibWave heightAir tempDewpointWater temp
2016-Jun-25 02:33N 35°22' E 139°40'0 0.0
2016-Jun-25 01:33N 35°22' E 139°40'0 0.0
2016-Jun-25 00:33N 35°22' E 139°40'0 0.0
2016-Jun-24 23:33N 35°22' E 139°40'0 0.1
2016-Jun-24 22:33N 35°22' E 139°40'1 1.2
2016-Jun-24 21:33N 35°23' E 139°41'4 3.8
2016-Jun-24 20:33N 35°27' E 139°40'0 0.0
2016-Jun-24 19:33N 35°27' E 139°40'0 0.0
2016-Jun-24 18:33N 35°27' E 139°40'0 0.0
2016-Jun-24 17:33N 35°27' E 139°40'0 0.0
2016-Jun-24 16:33N 35°27' E 139°40'0 0.0
2016-Jun-24 15:33N 35°27' E 139°40'0 0.0
2016-Jun-24 14:33N 35°27' E 139°40'0 0.0
2016-Jun-24 13:33N 35°27' E 139°40'0 0.0
2016-Jun-24 12:33N 35°27' E 139°40'0 0.0
2016-Jun-24 11:33N 35°27' E 139°40'0 0.0
2016-Jun-24 10:33N 35°27' E 139°40'0 0.0
2016-Jun-24 09:33N 35°27' E 139°40'0 0.0
2016-Jun-24 08:33N 35°27' E 139°40'0 0.0
2016-Jun-24 07:33N 35°27' E 139°40'0 0.0
2016-Jun-24 04:33N 35°27' E 139°40'0 0.0
2016-Jun-24 03:33N 35°27' E 139°40'0 0.0
2016-Jun-24 02:33N 35°27' E 139°40'0 0.0
2016-Jun-24 01:33N 35°27' E 139°40'0 0.0
2016-Jun-24 00:33N 35°27' E 139°40'0 0.0
2016-Jun-23 23:33N 35°27' E 139°40'0 0.0
2016-Jun-23 22:33N 35°27' E 139°40'0 0.2
2016-Jun-23 21:33N 35°27' E 139°40'1010.2
2016-Jun-23 20:33N 35°31' E 139°52'1312.4
2016-Jun-23 19:33N 35°36' E 140°06'1 0.5
2016-Jun-23 18:31N 35°36' E 140°06'0 0.0
2016-Jun-23 17:31N 35°36' E 140°06'0 0.0
2016-Jun-23 16:31N 35°36' E 140°06'0 0.0
2016-Jun-23 15:28N 35°36' E 140°06'0 0.0
2016-Jun-23 14:31N 35°36' E 140°06'0 0.0
2016-Jun-23 13:28N 35°36' E 140°06'0 0.0
2016-Jun-23 12:25N 35°36' E 140°06'0 0.0
2016-Jun-23 11:31N 35°36' E 140°06'0 0.0
2016-Jun-23 10:31N 35°36' E 140°06'0 0.0
2016-Jun-23 09:31N 35°36' E 140°06'0 0.0
2016-Jun-23 08:31N 35°36' E 140°06'0 0.0
2016-Jun-23 07:31N 35°36' E 140°06'6 2.8
2016-Jun-23 05:33N 35°34' E 140°00'1212.0
2016-Jun-23 04:34N 35°31' E 139°46'1 1.1
2016-Jun-23 03:33N 35°32' E 139°45'0 0.0
2016-Jun-23 02:27N 35°32' E 139°45'0 0.0
2016-Jun-22 23:33N 35°32' E 139°45'4 3.8
2016-Jun-22 22:32N 35°29' E 139°49'0 0.0
2016-Jun-22 21:32N 35°29' E 139°49'0 0.0
2016-Jun-22 20:32N 35°29' E 139°49'0 0.0
2016-Jun-22 19:32N 35°29' E 139°49'0 0.0
2016-Jun-22 18:32N 35°29' E 139°49'0 0.0
2016-Jun-22 17:32N 35°29' E 139°49'0 0.0
2016-Jun-22 16:32N 35°29' E 139°49'0 0.0
2016-Jun-22 15:32N 35°29' E 139°49'0 0.5
2016-Jun-22 14:34N 35°29' E 139°49'1211.5
2016-Jun-22 13:33N 35°18' E 139°44'1110.9
2016-Jun-22 12:33N 35°07' E 139°45'241 9.2
2016-Jun-21 10:27N 34°06' E 135°02'1010.8
2016-Jun-21 09:33N 34°15' E 135°03'1110.8
2016-Jun-21 08:33N 34°25' E 135°09'1212.1
2016-Jun-21 07:33N 34°36' E 135°15'6 2.0
2016-Jun-21 04:32N 34°42' E 135°15'0 0.4
2016-Jun-21 03:33N 34°42' E 135°15'4 3.3
2016-Jun-21 02:20N 34°39' E 135°19'0 0.0
2016-Jun-21 01:33N 34°39' E 135°19'0 0.0
2016-Jun-21 00:33N 34°39' E 135°19'0 0.1
2016-Jun-20 23:33N 34°39' E 135°19'0 0.0
2016-Jun-20 22:33N 34°39' E 135°19'0 0.0
2016-Jun-20 21:33N 34°39' E 135°19'0 0.0
2016-Jun-20 20:33N 34°39' E 135°19'0 0.0
2016-Jun-20 19:33N 34°39' E 135°19'0 0.1
2016-Jun-20 18:33N 34°39' E 135°19'0 0.0
2016-Jun-20 17:33N 34°39' E 135°19'3 3.3
2016-Jun-20 16:33N 34°38' E 135°16'1211.8
2016-Jun-20 15:32N 34°37' E 135°01'  
Track history (hours):
 
Tides and Currents Weather Stations Pressure Air Temp Water Temp Dewpoint Dewpoint Depression Visibility Wind Speed Wind Dir Waves Ship Positions

Kyokuho Maru No.15

Last reported at 2016-Jun-25 02:33 UTC. Time now 2016-Jun-25 03:31 UTC.
Position N 35°22' E 139°40'.

Length 63 m; draft 3.2 m.

Type: Tanker. MMSI: 431301714.

Date/timePositionNaut miles runAvg speedWind from/ knotsBaromVisibWave heightAir tempDewpointWater temp
2016-Jun-25 02:33N 35°22' E 139°40'0 0.0
2016-Jun-25 01:33N 35°22' E 139°40'0 0.0
2016-Jun-25 00:33N 35°22' E 139°40'0 0.0
2016-Jun-24 23:33N 35°22' E 139°40'0 0.1
2016-Jun-24 22:33N 35°22' E 139°40'1 1.2
2016-Jun-24 21:33N 35°23' E 139°41'4 3.8
2016-Jun-24 20:33N 35°27' E 139°40'0 0.0
2016-Jun-24 19:33N 35°27' E 139°40'0 0.0
2016-Jun-24 18:33N 35°27' E 139°40'0 0.0
2016-Jun-24 17:33N 35°27' E 139°40'0 0.0
2016-Jun-24 16:33N 35°27' E 139°40'0 0.0
2016-Jun-24 15:33N 35°27' E 139°40'0 0.0
2016-Jun-24 14:33N 35°27' E 139°40'0 0.0
2016-Jun-24 13:33N 35°27' E 139°40'0 0.0
2016-Jun-24 12:33N 35°27' E 139°40'0 0.0
2016-Jun-24 11:33N 35°27' E 139°40'0 0.0
2016-Jun-24 10:33N 35°27' E 139°40'0 0.0
2016-Jun-24 09:33N 35°27' E 139°40'0 0.0
2016-Jun-24 08:33N 35°27' E 139°40'0 0.0
2016-Jun-24 07:33N 35°27' E 139°40'0 0.0
2016-Jun-24 04:33N 35°27' E 139°40'0 0.0
2016-Jun-24 03:33N 35°27' E 139°40'0 0.0
2016-Jun-24 02:33N 35°27' E 139°40'0 0.0
2016-Jun-24 01:33N 35°27' E 139°40'0 0.0
2016-Jun-24 00:33N 35°27' E 139°40'0 0.0
2016-Jun-23 23:33N 35°27' E 139°40'0 0.0
2016-Jun-23 22:33N 35°27' E 139°40'0 0.2
2016-Jun-23 21:33N 35°27' E 139°40'1010.2
2016-Jun-23 20:33N 35°31' E 139°52'1312.4
2016-Jun-23 19:33N 35°36' E 140°06'1 0.5
2016-Jun-23 18:31N 35°36' E 140°06'0 0.0
2016-Jun-23 17:31N 35°36' E 140°06'0 0.0
2016-Jun-23 16:31N 35°36' E 140°06'0 0.0
2016-Jun-23 15:28N 35°36' E 140°06'0 0.0
2016-Jun-23 14:31N 35°36' E 140°06'0 0.0
2016-Jun-23 13:28N 35°36' E 140°06'0 0.0
2016-Jun-23 12:25N 35°36' E 140°06'0 0.0
2016-Jun-23 11:31N 35°36' E 140°06'0 0.0
2016-Jun-23 10:31N 35°36' E 140°06'0 0.0
2016-Jun-23 09:31N 35°36' E 140°06'0 0.0
2016-Jun-23 08:31N 35°36' E 140°06'0 0.0
2016-Jun-23 07:31N 35°36' E 140°06'6 2.8
2016-Jun-23 05:33N 35°34' E 140°00'1212.0
2016-Jun-23 04:34N 35°31' E 139°46'1 1.1
2016-Jun-23 03:33N 35°32' E 139°45'0 0.0
2016-Jun-23 02:27N 35°32' E 139°45'0 0.0
2016-Jun-22 23:33N 35°32' E 139°45'4 3.8
2016-Jun-22 22:32N 35°29' E 139°49'0 0.0
2016-Jun-22 21:32N 35°29' E 139°49'0 0.0
2016-Jun-22 20:32N 35°29' E 139°49'0 0.0
2016-Jun-22 19:32N 35°29' E 139°49'0 0.0
2016-Jun-22 18:32N 35°29' E 139°49'0 0.0
2016-Jun-22 17:32N 35°29' E 139°49'0 0.0
2016-Jun-22 16:32N 35°29' E 139°49'0 0.0
2016-Jun-22 15:32N 35°29' E 139°49'0 0.5
2016-Jun-22 14:34N 35°29' E 139°49'1211.5
2016-Jun-22 13:33N 35°18' E 139°44'1110.9
2016-Jun-22 12:33N 35°07' E 139°45'241 9.2
2016-Jun-21 10:27N 34°06' E 135°02'1010.8
2016-Jun-21 09:33N 34°15' E 135°03'1110.8
2016-Jun-21 08:33N 34°25' E 135°09'1212.1
2016-Jun-21 07:33N 34°36' E 135°15'6 2.0
2016-Jun-21 04:32N 34°42' E 135°15'0 0.4
2016-Jun-21 03:33N 34°42' E 135°15'4 3.3
2016-Jun-21 02:20N 34°39' E 135°19'0 0.0
2016-Jun-21 01:33N 34°39' E 135°19'0 0.0
2016-Jun-21 00:33N 34°39' E 135°19'0 0.1
2016-Jun-20 23:33N 34°39' E 135°19'0 0.0
2016-Jun-20 22:33N 34°39' E 135°19'0 0.0
2016-Jun-20 21:33N 34°39' E 135°19'0 0.0
2016-Jun-20 20:33N 34°39' E 135°19'0 0.0
2016-Jun-20 19:33N 34°39' E 135°19'0 0.1
2016-Jun-20 18:33N 34°39' E 135°19'0 0.0
2016-Jun-20 17:33N 34°39' E 135°19'3 3.3
2016-Jun-20 16:33N 34°38' E 135°16'1211.8
2016-Jun-20 15:32N 34°37' E 135°01'  

Dump ship's entire track history